createdAt,value
2022-09-15T00:00:53.928Z,15.27
2022-09-15T00:01:54.021Z,15.33
2022-09-15T00:02:54.082Z,15.29
2022-09-15T00:03:54.174Z,15.31
2022-09-15T00:04:53.925Z,15.29
2022-09-15T00:05:53.898Z,15.43
2022-09-15T00:06:53.975Z,15.40
2022-09-15T00:07:53.919Z,15.35
2022-09-15T00:08:54.001Z,15.43
2022-09-15T00:09:53.882Z,15.40
2022-09-15T00:10:53.880Z,15.44
2022-09-15T00:11:53.854Z,15.47
2022-09-15T00:12:53.835Z,15.47
2022-09-15T00:13:53.848Z,15.43
2022-09-15T00:14:53.842Z,15.46
2022-09-15T00:15:53.816Z,15.42
2022-09-15T00:16:54.008Z,15.47
2022-09-15T00:17:53.809Z,15.47
2022-09-15T00:18:53.795Z,15.43
2022-09-15T00:19:53.821Z,15.44
2022-09-15T00:20:53.793Z,15.43
2022-09-15T00:21:53.778Z,15.44
2022-09-15T00:22:53.805Z,15.36
2022-09-15T00:23:53.769Z,15.36
2022-09-15T00:24:53.773Z,15.36
2022-09-15T00:25:53.756Z,15.43
2022-09-15T00:26:53.747Z,15.40
2022-09-15T00:27:53.740Z,15.44
2022-09-15T00:28:53.749Z,15.28
2022-09-15T00:29:53.726Z,15.28
2022-09-15T00:30:53.782Z,15.19
2022-09-15T00:31:53.721Z,15.28
2022-09-15T00:32:53.709Z,15.24
2022-09-15T00:33:53.701Z,15.33
2022-09-15T00:34:53.693Z,15.29
2022-09-15T00:35:53.709Z,15.21
2022-09-15T00:36:53.687Z,15.25
2022-09-15T00:37:53.685Z,15.28
2022-09-15T00:38:53.674Z,15.33
2022-09-15T00:39:53.685Z,15.25
2022-09-15T00:40:53.654Z,15.28
2022-09-15T00:41:53.646Z,15.27
2022-09-15T00:42:53.638Z,15.36
2022-09-15T00:43:53.640Z,15.24
2022-09-15T00:44:53.626Z,15.31
2022-09-15T00:45:53.677Z,15.21
2022-09-15T00:47:09.663Z,15.19
2022-09-15T00:47:53.636Z,15.21
2022-09-15T00:48:53.622Z,15.21
2022-09-15T00:49:58.226Z,15.19
2022-09-15T00:50:53.611Z,15.22
2022-09-15T00:51:53.698Z,15.21
2022-09-15T00:52:53.574Z,15.25
2022-09-15T00:53:53.573Z,15.21
2022-09-15T00:54:53.564Z,15.27
2022-09-15T00:55:53.560Z,15.21
2022-09-15T00:56:53.563Z,15.14
2022-09-15T00:57:53.595Z,15.18
2022-09-15T00:58:53.538Z,15.11
2022-09-15T00:59:53.541Z,15.14
2022-09-15T01:00:53.550Z,15.15
2022-09-15T01:01:53.576Z,15.14
2022-09-15T01:02:53.538Z,15.14
2022-09-15T01:03:53.511Z,15.14
2022-09-15T01:04:58.036Z,15.10
2022-09-15T01:05:53.500Z,15.18
2022-09-15T01:06:53.487Z,15.10
2022-09-15T01:07:53.496Z,15.06
2022-09-15T01:08:53.466Z,15.11
2022-09-15T01:09:53.461Z,15.04
2022-09-15T01:10:53.449Z,14.97
2022-09-15T01:11:53.451Z,15.03
2022-09-15T01:12:53.450Z,15.00
2022-09-15T01:13:53.466Z,15.02
2022-09-15T01:14:53.448Z,15.02
2022-09-15T01:15:53.418Z,15.00
2022-09-15T01:16:53.536Z,14.99
2022-09-15T01:17:53.414Z,14.99
2022-09-15T01:18:53.422Z,14.99
2022-09-15T01:19:53.395Z,14.97
2022-09-15T01:20:53.420Z,14.94
2022-09-15T01:21:58.095Z,15.03
2022-09-15T01:22:53.388Z,15.04
2022-09-15T01:23:53.400Z,15.06
2022-09-15T01:24:53.371Z,15.02
2022-09-15T01:25:53.365Z,14.99
2022-09-15T01:26:53.389Z,14.99
2022-09-15T01:27:53.357Z,14.97
2022-09-15T01:28:53.405Z,14.99
2022-09-15T01:29:53.331Z,14.97
2022-09-15T01:30:53.345Z,14.96
2022-09-15T01:31:53.416Z,14.96
2022-09-15T01:32:53.330Z,14.94
2022-09-15T01:33:53.302Z,14.92
2022-09-15T01:34:53.323Z,14.94
2022-09-15T01:35:53.300Z,14.99
2022-09-15T01:36:53.286Z,14.89
2022-09-15T01:37:53.275Z,15.02
2022-09-15T01:38:53.452Z,15.04
2022-09-15T01:39:53.802Z,14.99
2022-09-15T01:40:53.527Z,15.06
2022-09-15T01:41:53.472Z,15.00
2022-09-15T01:42:53.666Z,15.03
2022-09-15T01:43:53.505Z,15.03
2022-09-15T01:44:53.582Z,14.99
2022-09-15T01:45:53.567Z,14.99
2022-09-15T01:46:53.427Z,15.02
2022-09-15T01:47:53.446Z,15.03
2022-09-15T01:48:53.608Z,14.99
2022-09-15T01:49:53.606Z,14.91
2022-09-15T01:50:53.568Z,14.97
2022-09-15T01:51:53.380Z,14.96
2022-09-15T01:52:53.390Z,15.04
2022-09-15T01:53:53.418Z,14.94
2022-09-15T01:54:53.478Z,14.86
2022-09-15T01:55:53.512Z,15.00
2022-09-15T01:56:53.386Z,15.03
2022-09-15T01:57:53.419Z,14.96
2022-09-15T01:58:53.410Z,14.97
2022-09-15T01:59:53.542Z,15.00
2022-09-15T02:00:53.199Z,14.97
2022-09-15T02:01:53.442Z,15.00
2022-09-15T02:02:53.324Z,15.00
2022-09-15T02:03:53.100Z,14.89
2022-09-15T02:04:53.620Z,14.94
2022-09-15T02:05:53.495Z,14.86
2022-09-15T02:06:53.317Z,14.86
2022-09-15T02:07:53.365Z,14.99
2022-09-15T02:08:53.325Z,14.89
2022-09-15T02:09:53.385Z,14.85
2022-09-15T02:10:53.281Z,14.84
2022-09-15T02:11:53.366Z,14.91
2022-09-15T02:12:53.277Z,14.78
2022-09-15T02:13:53.315Z,14.78
2022-09-15T02:14:53.514Z,14.89
2022-09-15T02:15:53.373Z,14.82
2022-09-15T02:16:53.247Z,14.89
2022-09-15T02:17:53.796Z,14.86
2022-09-15T02:18:53.291Z,14.94
2022-09-15T02:19:53.060Z,14.88
2022-09-15T02:20:53.274Z,14.88
2022-09-15T02:21:53.450Z,14.94
2022-09-15T02:22:53.335Z,14.92
2022-09-15T02:23:53.270Z,14.92
2022-09-15T02:24:53.355Z,14.88
2022-09-15T02:25:53.475Z,14.99
2022-09-15T02:26:53.255Z,14.97
2022-09-15T02:27:53.382Z,14.96
2022-09-15T02:28:53.077Z,14.97
2022-09-15T02:29:53.233Z,14.99
2022-09-15T02:30:53.315Z,14.88
2022-09-15T02:31:53.392Z,14.92
2022-09-15T02:32:53.210Z,14.86
2022-09-15T02:33:53.295Z,14.92
2022-09-15T02:34:53.210Z,14.92
2022-09-15T02:35:53.162Z,14.86
2022-09-15T02:36:53.128Z,14.79
2022-09-15T02:37:53.427Z,14.79
2022-09-15T02:38:53.258Z,14.82
2022-09-15T02:39:52.958Z,14.77
2022-09-15T02:40:53.098Z,14.92
2022-09-15T02:41:53.410Z,14.86
2022-09-15T02:42:53.099Z,14.89
2022-09-15T02:43:53.125Z,14.94
2022-09-15T02:44:53.140Z,14.92
2022-09-15T02:45:53.200Z,14.91
2022-09-15T02:46:53.210Z,14.89
2022-09-15T02:47:53.228Z,14.94
2022-09-15T02:48:53.057Z,14.96
2022-09-15T02:49:53.050Z,14.96
2022-09-15T02:50:53.167Z,15.04
2022-09-15T02:51:53.355Z,14.96
2022-09-15T02:52:53.042Z,14.99
2022-09-15T02:53:53.176Z,15.04
2022-09-15T02:54:53.140Z,14.96
2022-09-15T02:55:53.113Z,15.02
2022-09-15T02:56:53.347Z,15.07
2022-09-15T02:57:52.995Z,15.03
2022-09-15T02:58:53.211Z,14.97
2022-09-15T02:59:53.063Z,15.00
2022-09-15T03:00:53.045Z,15.03
2022-09-15T03:01:53.123Z,15.02
2022-09-15T03:02:53.236Z,15.04
2022-09-15T03:03:53.078Z,15.03
2022-09-15T03:04:53.057Z,15.06
2022-09-15T03:05:53.117Z,15.00
2022-09-15T03:06:53.055Z,15.07
2022-09-15T03:07:53.156Z,15.03
2022-09-15T03:08:52.962Z,15.11
2022-09-15T03:09:52.722Z,15.06
2022-09-15T03:10:53.197Z,15.07
2022-09-15T03:11:52.922Z,15.14
2022-09-15T03:12:53.050Z,15.04
2022-09-15T03:13:52.677Z,15.17
2022-09-15T03:14:53.130Z,15.14
2022-09-15T03:15:53.057Z,15.10
2022-09-15T03:16:53.028Z,15.11
2022-09-15T03:17:52.612Z,14.99
2022-09-15T03:18:53.179Z,15.03
2022-09-15T03:19:52.954Z,15.02
2022-09-15T03:20:52.666Z,15.03
2022-09-15T03:21:52.876Z,15.03
2022-09-15T03:22:53.163Z,15.06
2022-09-15T03:23:52.817Z,15.09
2022-09-15T03:24:52.966Z,15.11
2022-09-15T03:25:52.778Z,15.11
2022-09-15T03:26:52.920Z,15.11
2022-09-15T03:27:52.830Z,15.06
2022-09-15T03:28:53.109Z,15.07
2022-09-15T03:29:52.915Z,15.15
2022-09-15T03:30:52.798Z,15.10
2022-09-15T03:31:52.890Z,15.10
2022-09-15T03:32:52.988Z,15.02
2022-09-15T03:33:52.757Z,15.03
2022-09-15T03:34:57.679Z,15.04
2022-09-15T03:35:52.840Z,15.10
2022-09-15T03:36:52.831Z,15.11
2022-09-15T03:37:53.021Z,15.18
2022-09-15T03:38:52.561Z,15.18
2022-09-15T03:39:52.911Z,15.09
2022-09-15T03:40:52.738Z,15.11
2022-09-15T03:41:52.721Z,15.19
2022-09-15T03:42:52.843Z,15.18
2022-09-15T03:43:53.162Z,15.11
2022-09-15T03:44:52.730Z,15.06
2022-09-15T03:45:52.885Z,15.03
2022-09-15T03:46:52.768Z,15.07
2022-09-15T03:47:52.993Z,14.99
2022-09-15T03:48:52.731Z,15.06
2022-09-15T03:49:52.762Z,15.04
2022-09-15T03:50:52.480Z,15.06
2022-09-15T03:51:52.663Z,15.09
2022-09-15T03:52:56.814Z,15.04
2022-09-15T03:53:52.967Z,15.03
2022-09-15T03:54:52.658Z,14.99
2022-09-15T03:55:52.561Z,14.92
2022-09-15T03:56:52.593Z,14.94
2022-09-15T03:57:52.603Z,15.03
2022-09-15T03:58:52.857Z,14.97
2022-09-15T03:59:52.614Z,15.00
2022-09-15T04:00:52.796Z,15.00
2022-09-15T04:01:52.584Z,15.03
2022-09-15T04:02:52.599Z,15.03
2022-09-15T04:03:52.792Z,15.06
2022-09-15T04:04:52.573Z,15.00
2022-09-15T04:05:52.587Z,15.00
2022-09-15T04:06:52.653Z,15.03
2022-09-15T04:07:52.603Z,15.09
2022-09-15T04:08:52.709Z,15.04
2022-09-15T04:09:52.587Z,15.06
2022-09-15T04:10:52.459Z,14.96
2022-09-15T04:11:52.476Z,14.99
2022-09-15T04:12:52.675Z,15.00
2022-09-15T04:13:52.636Z,15.04
2022-09-15T04:14:52.444Z,15.09
2022-09-15T04:15:52.466Z,15.03
2022-09-15T04:16:52.389Z,15.04
2022-09-15T04:17:52.835Z,15.04
2022-09-15T04:18:52.402Z,15.04
2022-09-15T04:19:52.625Z,15.04
2022-09-15T04:20:52.491Z,15.00
2022-09-15T04:21:52.448Z,14.96
2022-09-15T04:22:52.477Z,14.97
2022-09-15T04:23:52.541Z,14.94
2022-09-15T04:24:52.427Z,14.86
2022-09-15T04:25:52.269Z,14.85
2022-09-15T04:26:52.557Z,14.82
2022-09-15T04:27:52.126Z,14.78
2022-09-15T04:28:52.131Z,14.81
2022-09-15T04:29:52.114Z,14.72
2022-09-15T04:30:52.134Z,14.65
2022-09-15T04:31:52.168Z,14.69
2022-09-15T04:32:52.086Z,14.69
2022-09-15T04:33:52.100Z,14.69
2022-09-15T04:34:52.071Z,14.68
2022-09-15T04:35:52.101Z,14.70
2022-09-15T04:36:52.074Z,14.70
2022-09-15T04:37:52.053Z,14.68
2022-09-15T04:38:52.286Z,14.68
2022-09-15T04:39:52.154Z,14.73
2022-09-15T04:40:52.038Z,14.69
2022-09-15T04:41:52.031Z,14.77
2022-09-15T04:42:52.062Z,14.77
2022-09-15T04:43:52.013Z,14.82
2022-09-15T04:44:52.023Z,14.73
2022-09-15T04:45:52.027Z,14.85
2022-09-15T04:46:52.095Z,14.84
2022-09-15T04:47:51.991Z,14.81
2022-09-15T04:48:51.981Z,14.79
2022-09-15T04:49:52.012Z,14.78
2022-09-15T04:50:51.978Z,14.73
2022-09-15T04:51:52.009Z,14.77
2022-09-15T04:52:51.974Z,14.63
2022-09-15T04:53:52.261Z,14.59
2022-09-15T04:54:51.948Z,14.65
2022-09-15T04:55:51.949Z,14.65
2022-09-15T04:56:51.944Z,14.62
2022-09-15T04:57:51.967Z,14.55
2022-09-15T04:58:51.919Z,14.48
2022-09-15T04:59:51.931Z,14.54
2022-09-15T05:00:51.953Z,14.54
2022-09-15T05:01:52.142Z,14.45
2022-09-15T05:02:51.912Z,14.51
2022-09-15T05:03:51.947Z,14.54
2022-09-15T05:04:51.863Z,14.55
2022-09-15T05:05:51.858Z,14.54
2022-09-15T05:06:51.853Z,14.55
2022-09-15T05:07:51.877Z,14.48
2022-09-15T05:08:51.941Z,14.43
2022-09-15T05:09:51.882Z,14.44
2022-09-15T05:10:51.877Z,14.40
2022-09-15T05:11:51.843Z,14.40
2022-09-15T05:12:51.813Z,14.45
2022-09-15T05:13:52.166Z,14.44
2022-09-15T05:14:51.799Z,14.29
2022-09-15T05:15:51.865Z,14.41
2022-09-15T05:16:51.795Z,14.29
2022-09-15T05:17:51.799Z,14.23
2022-09-15T05:18:51.787Z,14.29
2022-09-15T05:19:51.762Z,14.26
2022-09-15T05:20:51.834Z,14.25
2022-09-15T05:21:51.786Z,14.22
2022-09-15T05:22:51.786Z,14.22
2022-09-15T05:23:52.158Z,14.23
2022-09-15T05:24:51.752Z,14.25
2022-09-15T05:25:51.759Z,14.28
2022-09-15T05:26:51.948Z,14.26
2022-09-15T05:27:51.733Z,14.29
2022-09-15T05:28:51.713Z,14.30
2022-09-15T05:30:04.348Z,14.28
2022-09-15T05:30:51.923Z,14.29
2022-09-15T05:31:51.765Z,14.20
2022-09-15T05:32:51.689Z,14.23
2022-09-15T05:33:51.686Z,14.23
2022-09-15T05:34:51.916Z,14.25
2022-09-15T05:35:51.800Z,14.28
2022-09-15T05:36:51.861Z,14.28
2022-09-15T05:37:51.663Z,14.28
2022-09-15T05:38:51.715Z,14.35
2022-09-15T05:39:51.736Z,14.35
2022-09-15T05:40:51.665Z,14.43
2022-09-15T05:41:51.607Z,14.37
2022-09-15T05:42:51.604Z,14.44
2022-09-15T05:43:51.615Z,14.44
2022-09-15T05:44:51.600Z,14.44
2022-09-15T05:45:51.627Z,14.41
2022-09-15T05:46:51.653Z,14.40
2022-09-15T05:47:51.577Z,14.43
2022-09-15T05:48:51.579Z,14.41
2022-09-15T05:49:51.554Z,14.35
2022-09-15T05:50:51.542Z,14.44
2022-09-15T05:51:51.568Z,14.45
2022-09-15T05:52:51.523Z,14.45
2022-09-15T05:53:51.812Z,14.41
2022-09-15T05:54:54.662Z,14.41
2022-09-15T05:55:51.549Z,14.44
2022-09-15T05:56:51.543Z,14.44
2022-09-15T05:57:51.545Z,14.43
2022-09-15T05:58:51.511Z,14.45
2022-09-15T05:59:51.505Z,14.40
2022-09-15T06:00:51.485Z,14.41
2022-09-15T06:01:51.561Z,14.40
2022-09-15T06:02:51.515Z,14.45
2022-09-15T06:03:51.449Z,14.43
2022-09-15T06:04:51.493Z,14.47
2022-09-15T06:05:51.641Z,14.45
2022-09-15T06:06:51.441Z,14.44
2022-09-15T06:07:51.410Z,14.53
2022-09-15T06:08:56.821Z,14.55
2022-09-15T06:09:51.429Z,14.63
2022-09-15T06:10:51.405Z,14.58
2022-09-15T06:11:51.460Z,14.59
2022-09-15T06:12:51.414Z,14.63
2022-09-15T06:13:51.406Z,14.55
2022-09-15T06:14:51.365Z,14.63
2022-09-15T06:15:51.395Z,14.63
2022-09-15T06:16:51.359Z,14.54
2022-09-15T06:17:51.360Z,14.59
2022-09-15T06:18:51.482Z,14.60
2022-09-15T06:19:51.386Z,14.66
2022-09-15T06:20:51.370Z,14.68
2022-09-15T06:21:51.365Z,14.68
2022-09-15T06:22:51.332Z,14.59
2022-09-15T06:23:51.346Z,14.60
2022-09-15T06:24:51.340Z,14.70
2022-09-15T06:25:51.312Z,14.63
2022-09-15T06:26:51.289Z,14.66
2022-09-15T06:27:51.341Z,14.70
2022-09-15T06:28:51.284Z,14.55
2022-09-15T06:29:51.256Z,14.59
2022-09-15T06:30:51.262Z,14.62
2022-09-15T06:31:51.308Z,14.54
2022-09-15T06:32:51.253Z,14.65
2022-09-15T06:33:51.542Z,14.65
2022-09-15T06:34:51.274Z,14.59
2022-09-15T06:35:51.216Z,14.58
2022-09-15T06:36:51.244Z,14.60
2022-09-15T06:37:51.229Z,14.62
2022-09-15T06:38:51.201Z,14.59
2022-09-15T06:39:51.252Z,14.65
2022-09-15T06:40:51.188Z,14.62
2022-09-15T06:42:02.375Z,14.63
2022-09-15T06:42:51.165Z,14.69
2022-09-15T06:43:51.405Z,14.55
2022-09-15T06:44:51.170Z,14.66
2022-09-15T06:45:51.288Z,14.66
2022-09-15T06:46:51.166Z,14.65
2022-09-15T06:48:07.422Z,14.55
2022-09-15T06:48:51.141Z,14.70
2022-09-15T06:49:51.128Z,14.69
2022-09-15T06:50:51.126Z,14.72
2022-09-15T06:51:51.122Z,14.60
2022-09-15T06:52:51.115Z,14.62
2022-09-15T06:53:51.101Z,14.60
2022-09-15T06:54:51.090Z,14.72
2022-09-15T06:55:51.082Z,14.65
2022-09-15T06:56:51.098Z,14.68
2022-09-15T06:57:51.083Z,14.70
2022-09-15T06:58:51.075Z,14.77
2022-09-15T06:59:51.129Z,14.69
2022-09-15T07:00:51.075Z,14.84
2022-09-15T07:01:51.098Z,14.78
2022-09-15T07:02:51.161Z,14.73
2022-09-15T07:03:51.036Z,14.69
2022-09-15T07:04:51.019Z,14.81
2022-09-15T07:05:51.050Z,14.82
2022-09-15T07:06:51.008Z,14.78
2022-09-15T07:07:51.015Z,14.81
2022-09-15T07:08:51.124Z,14.82
2022-09-15T07:09:50.997Z,14.70
2022-09-15T07:10:50.986Z,14.78
2022-09-15T07:11:50.988Z,14.69
2022-09-15T07:12:50.962Z,14.70
2022-09-15T07:13:50.976Z,14.77
2022-09-15T07:14:50.965Z,14.79
2022-09-15T07:15:51.050Z,14.85
2022-09-15T07:16:51.051Z,14.77
2022-09-15T07:17:50.944Z,14.85
2022-09-15T07:18:50.932Z,14.88
2022-09-15T07:19:50.926Z,14.88
2022-09-15T07:20:50.912Z,14.89
2022-09-15T07:21:50.902Z,14.92
2022-09-15T07:22:50.902Z,14.78
2022-09-15T07:23:50.935Z,14.82
2022-09-15T07:24:50.891Z,14.70
2022-09-15T07:25:50.881Z,14.66
2022-09-15T07:26:51.072Z,14.70
2022-09-15T07:27:50.877Z,14.70
2022-09-15T07:28:50.857Z,14.70
2022-09-15T07:29:50.861Z,14.70
2022-09-15T07:30:50.841Z,14.81
2022-09-15T07:31:50.943Z,14.77
2022-09-15T07:32:50.855Z,14.62
2022-09-15T07:33:50.909Z,14.63
2022-09-15T07:34:50.817Z,14.68
2022-09-15T07:35:50.835Z,14.69
2022-09-15T07:36:50.821Z,14.77
2022-09-15T07:37:50.792Z,14.79
2022-09-15T07:38:50.785Z,14.82
2022-09-15T07:39:50.830Z,14.79
2022-09-15T07:40:50.778Z,14.85
2022-09-15T07:41:50.806Z,14.92
2022-09-15T07:42:50.771Z,14.97
2022-09-15T07:43:50.755Z,14.91
2022-09-15T07:44:50.754Z,15.02
2022-09-15T07:45:50.749Z,15.03
2022-09-15T07:46:50.754Z,14.99
2022-09-15T07:47:50.734Z,14.73
2022-09-15T07:48:50.714Z,14.84
2022-09-15T07:49:50.713Z,14.82
2022-09-15T07:50:50.728Z,14.82
2022-09-15T07:51:50.708Z,14.94
2022-09-15T07:52:50.704Z,14.96
2022-09-15T07:53:50.687Z,14.99
2022-09-15T07:54:50.690Z,14.97
2022-09-15T07:55:50.669Z,15.02
2022-09-15T07:56:50.670Z,15.06
2022-09-15T07:57:50.665Z,15.03
2022-09-15T07:58:50.651Z,14.96
2022-09-15T07:59:50.643Z,14.99
2022-09-15T08:00:50.699Z,15.02
2022-09-15T08:01:50.693Z,15.10
2022-09-15T08:02:50.619Z,15.17
2022-09-15T08:03:50.653Z,15.21
2022-09-15T08:04:50.617Z,15.24
2022-09-15T08:05:50.598Z,15.31
2022-09-15T08:06:50.666Z,15.29
2022-09-15T08:07:50.600Z,15.18
2022-09-15T08:08:50.583Z,15.18
2022-09-15T08:09:50.578Z,15.06
2022-09-15T08:10:50.566Z,15.04
2022-09-15T08:11:50.578Z,15.02
2022-09-15T08:12:50.581Z,15.02
2022-09-15T08:13:50.556Z,15.03
2022-09-15T08:14:50.536Z,15.09
2022-09-15T08:15:50.585Z,15.17
2022-09-15T08:16:50.517Z,15.22
2022-09-15T08:17:50.517Z,15.24
2022-09-15T08:18:50.507Z,15.27
2022-09-15T08:19:50.527Z,15.29
2022-09-15T08:20:50.492Z,15.35
2022-09-15T08:21:50.503Z,15.31
2022-09-15T08:22:50.495Z,15.28
2022-09-15T08:23:50.482Z,15.31
2022-09-15T08:24:50.487Z,15.42
2022-09-15T08:25:50.489Z,15.46
2022-09-15T08:26:50.489Z,15.54
2022-09-15T08:27:50.458Z,15.51
2022-09-15T08:28:50.538Z,15.44
2022-09-15T08:29:50.451Z,15.76
2022-09-15T08:30:50.485Z,16.05
2022-09-15T08:31:50.497Z,16.57
2022-09-15T08:32:50.428Z,16.90
2022-09-15T08:33:50.430Z,16.76
2022-09-15T08:34:50.441Z,16.89
2022-09-15T08:35:50.446Z,16.97
2022-09-15T08:36:50.391Z,16.78
2022-09-15T08:37:50.401Z,16.58
2022-09-15T08:38:50.392Z,16.65
2022-09-15T08:39:50.459Z,16.58
2022-09-15T08:40:50.392Z,16.41
2022-09-15T08:41:50.392Z,16.36
2022-09-15T08:42:50.354Z,16.32
2022-09-15T08:43:50.385Z,16.32
2022-09-15T08:44:50.350Z,16.35
2022-09-15T08:45:50.358Z,16.41
2022-09-15T08:46:50.459Z,16.60
2022-09-15T08:47:50.322Z,16.93
2022-09-15T08:48:50.641Z,17.22
2022-09-15T08:49:52.437Z,17.44
2022-09-15T08:50:50.317Z,17.87
2022-09-15T08:51:50.418Z,18.38
2022-09-15T08:52:50.321Z,18.78
2022-09-15T08:53:50.323Z,19.21
2022-09-15T08:54:50.314Z,19.58
2022-09-15T08:55:50.307Z,19.99
2022-09-15T08:56:50.291Z,20.24
2022-09-15T08:57:50.285Z,20.11
2022-09-15T08:58:50.717Z,19.77
2022-09-15T08:59:50.272Z,19.86
2022-09-15T09:00:50.263Z,19.71
2022-09-15T09:01:50.312Z,20.00
2022-09-15T09:02:50.344Z,20.36
2022-09-15T09:03:50.261Z,20.47
2022-09-15T09:04:50.253Z,20.41
2022-09-15T09:05:50.252Z,20.18
2022-09-15T09:06:50.241Z,20.39
2022-09-15T09:07:50.248Z,20.29
2022-09-15T09:08:50.347Z,20.39
2022-09-15T09:09:50.233Z,20.31
2022-09-15T09:10:50.385Z,20.09
2022-09-15T09:11:50.562Z,19.96
2022-09-15T09:12:50.237Z,19.89
2022-09-15T09:13:50.216Z,19.82
2022-09-15T09:14:50.210Z,19.92
2022-09-15T09:15:50.278Z,19.59
2022-09-15T09:16:50.205Z,19.49
2022-09-15T09:17:50.345Z,19.62
2022-09-15T09:18:50.300Z,19.56
2022-09-15T09:19:50.195Z,19.62
2022-09-15T09:20:50.206Z,19.36
2022-09-15T09:21:50.192Z,19.37
2022-09-15T09:22:50.185Z,19.40
2022-09-15T09:23:50.286Z,19.48
2022-09-15T09:24:50.182Z,19.34
2022-09-15T09:25:50.170Z,19.19
2022-09-15T09:26:50.185Z,19.08
2022-09-15T09:27:50.152Z,19.11
2022-09-15T09:28:50.193Z,19.18
2022-09-15T09:29:50.177Z,19.15
2022-09-15T09:30:50.223Z,18.99
2022-09-15T09:31:50.319Z,18.90
2022-09-15T09:32:50.132Z,18.77
2022-09-15T09:33:50.307Z,18.65
2022-09-15T09:34:50.182Z,18.63
2022-09-15T09:35:50.127Z,18.74
2022-09-15T09:36:50.123Z,18.83
2022-09-15T09:37:50.130Z,18.89
2022-09-15T09:38:50.112Z,19.19
2022-09-15T09:39:50.179Z,19.00
2022-09-15T09:40:50.107Z,19.00
2022-09-15T09:41:50.101Z,19.19
2022-09-15T09:42:50.097Z,19.30
2022-09-15T09:43:50.092Z,19.39
2022-09-15T09:44:50.137Z,19.73
2022-09-15T09:45:50.147Z,19.76
2022-09-15T09:46:50.144Z,19.76
2022-09-15T09:47:50.111Z,19.79
2022-09-15T09:48:50.066Z,19.95
2022-09-15T09:49:50.071Z,20.09
2022-09-15T09:50:50.060Z,19.82
2022-09-15T09:51:50.063Z,19.76
2022-09-15T09:52:50.068Z,19.88
2022-09-15T09:53:50.043Z,19.88
2022-09-15T09:54:50.077Z,19.86
2022-09-15T09:55:50.054Z,19.59
2022-09-15T09:56:50.052Z,19.69
2022-09-15T09:57:50.050Z,19.91
2022-09-15T09:58:50.047Z,19.86
2022-09-15T09:59:50.023Z,19.66
2022-09-15T10:00:50.029Z,19.77
2022-09-15T10:01:50.085Z,19.79
2022-09-15T10:02:50.007Z,19.71
2022-09-15T10:03:50.006Z,19.71
2022-09-15T10:04:50.071Z,19.85
2022-09-15T10:05:50.038Z,20.03
2022-09-15T10:06:50.013Z,20.07
2022-09-15T10:07:50.294Z,20.07
2022-09-15T10:08:50.506Z,19.95
2022-09-15T10:09:50.267Z,20.13
2022-09-15T10:10:50.295Z,19.81
2022-09-15T10:11:50.000Z,19.62
2022-09-15T10:12:49.995Z,19.67
2022-09-15T10:13:49.964Z,19.47
2022-09-15T10:14:51.982Z,19.48
2022-09-15T10:15:49.956Z,19.51
2022-09-15T10:16:49.997Z,19.31
2022-09-15T10:17:49.949Z,19.34
2022-09-15T10:18:54.262Z,19.34
2022-09-15T10:19:49.945Z,19.54
2022-09-15T10:20:50.445Z,19.74
2022-09-15T10:21:50.358Z,19.82
2022-09-15T10:22:49.967Z,20.06
2022-09-15T10:23:49.944Z,19.96
2022-09-15T10:24:49.950Z,20.22
2022-09-15T10:25:59.130Z,20.36
2022-09-15T10:26:49.933Z,20.28
2022-09-15T10:27:49.923Z,19.94
2022-09-15T10:28:49.914Z,19.63
2022-09-15T10:29:49.918Z,19.54
2022-09-15T10:30:49.943Z,19.52
2022-09-15T10:31:49.978Z,19.34
2022-09-15T10:32:49.893Z,19.07
2022-09-15T10:33:49.905Z,18.92
2022-09-15T10:34:49.885Z,18.68
2022-09-15T10:35:49.878Z,18.56
2022-09-15T10:36:49.874Z,18.62
2022-09-15T10:37:49.866Z,18.73
2022-09-15T10:38:49.865Z,18.75
2022-09-15T10:39:49.890Z,18.84
2022-09-15T10:40:49.897Z,18.71
2022-09-15T10:41:49.861Z,18.58
2022-09-15T10:42:49.866Z,18.58
2022-09-15T10:43:49.870Z,18.55
2022-09-15T10:44:49.834Z,18.43
2022-09-15T10:45:49.925Z,18.45
2022-09-15T10:46:49.825Z,18.43
2022-09-15T10:47:49.837Z,18.43
2022-09-15T10:48:49.811Z,18.43
2022-09-15T10:49:49.835Z,18.38
2022-09-15T10:50:49.843Z,18.44
2022-09-15T10:51:49.812Z,18.44
2022-09-15T10:52:49.804Z,18.35
2022-09-15T10:53:49.810Z,18.26
2022-09-15T10:54:49.819Z,18.25
2022-09-15T10:55:53.098Z,18.33
2022-09-15T10:56:49.774Z,18.26
2022-09-15T10:57:49.768Z,18.25
2022-09-15T10:58:49.824Z,18.31
2022-09-15T10:59:49.797Z,18.38
2022-09-15T11:00:49.799Z,18.33
2022-09-15T11:01:49.792Z,18.22
2022-09-15T11:02:49.763Z,18.26
2022-09-15T11:03:49.766Z,18.28
2022-09-15T11:04:49.742Z,18.25
2022-09-15T11:05:49.752Z,18.40
2022-09-15T11:06:49.743Z,18.31
2022-09-15T11:07:49.733Z,18.19
2022-09-15T11:08:49.721Z,18.20
2022-09-15T11:09:49.707Z,18.19
2022-09-15T11:10:49.719Z,18.18
2022-09-15T11:11:49.708Z,18.15
2022-09-15T11:12:49.699Z,18.18
2022-09-15T11:13:49.689Z,17.98
2022-09-15T11:14:49.707Z,17.85
2022-09-15T11:15:49.796Z,17.70
2022-09-15T11:16:49.708Z,17.72
2022-09-15T11:17:49.700Z,17.72
2022-09-15T11:18:49.700Z,17.76
2022-09-15T11:19:49.656Z,17.71
2022-09-15T11:20:49.665Z,17.79
2022-09-15T11:21:49.649Z,17.90
2022-09-15T11:22:49.902Z,17.90
2022-09-15T11:23:49.654Z,17.78
2022-09-15T11:24:49.681Z,17.78
2022-09-15T11:25:49.627Z,17.80
2022-09-15T11:26:49.732Z,17.87
2022-09-15T11:27:49.623Z,17.83
2022-09-15T11:28:49.782Z,17.95
2022-09-15T11:29:49.616Z,17.85
2022-09-15T11:30:49.661Z,17.97
2022-09-15T11:31:49.745Z,18.04
2022-09-15T11:32:52.916Z,17.94
2022-09-15T11:33:49.957Z,17.86
2022-09-15T11:34:49.737Z,17.87
2022-09-15T11:35:49.595Z,17.82
2022-09-15T11:36:49.583Z,17.78
2022-09-15T11:37:49.585Z,17.79
2022-09-15T11:38:49.571Z,17.80
2022-09-15T11:39:49.592Z,17.82
2022-09-15T11:40:49.579Z,17.87
2022-09-15T11:41:49.572Z,17.82
2022-09-15T11:42:49.551Z,17.90
2022-09-15T11:43:49.539Z,17.82
2022-09-15T11:44:49.534Z,17.79
2022-09-15T11:45:49.586Z,17.74
2022-09-15T11:46:49.568Z,17.74
2022-09-15T11:47:49.548Z,17.74
2022-09-15T11:48:49.740Z,17.76
2022-09-15T11:49:49.511Z,17.70
2022-09-15T11:50:49.513Z,17.85
2022-09-15T11:51:49.513Z,17.89
2022-09-15T11:52:49.490Z,18.03
2022-09-15T11:53:49.489Z,18.23
2022-09-15T11:54:49.683Z,18.31
2022-09-15T11:55:49.501Z,18.44
2022-09-15T11:56:49.470Z,18.49
2022-09-15T11:57:49.508Z,18.71
2022-09-15T11:58:49.485Z,18.70
2022-09-15T11:59:49.458Z,18.66
2022-09-15T12:00:49.442Z,18.73
2022-09-15T12:01:49.517Z,18.70
2022-09-15T12:02:49.514Z,18.78
2022-09-15T12:03:49.470Z,18.74
2022-09-15T12:04:49.440Z,18.84
2022-09-15T12:05:49.432Z,18.71
2022-09-15T12:06:49.598Z,18.75
2022-09-15T12:07:49.409Z,18.74
2022-09-15T12:08:49.428Z,18.75
2022-09-15T12:09:49.415Z,18.71
2022-09-15T12:10:49.428Z,18.70
2022-09-15T12:11:49.391Z,18.71
2022-09-15T12:12:49.386Z,18.62
2022-09-15T12:13:49.377Z,18.55
2022-09-15T12:14:49.379Z,18.55
2022-09-15T12:15:49.459Z,18.60
2022-09-15T12:16:49.365Z,18.59
2022-09-15T12:17:49.370Z,18.60
2022-09-15T12:18:49.350Z,18.63
2022-09-15T12:19:49.372Z,18.58
2022-09-15T12:20:49.348Z,18.47
2022-09-15T12:21:49.361Z,18.45
2022-09-15T12:22:49.380Z,18.40
2022-09-15T12:23:49.340Z,18.22
2022-09-15T12:24:49.338Z,18.15
2022-09-15T12:25:49.324Z,18.11
2022-09-15T12:26:49.338Z,17.85
2022-09-15T12:27:49.316Z,17.82
2022-09-15T12:28:49.309Z,17.80
2022-09-15T12:29:49.311Z,17.80
2022-09-15T12:30:49.308Z,17.67
2022-09-15T12:31:49.307Z,17.63
2022-09-15T12:32:49.504Z,17.67
2022-09-15T12:33:49.291Z,17.57
2022-09-15T12:34:49.320Z,17.63
2022-09-15T12:35:49.359Z,17.68
2022-09-15T12:36:49.348Z,17.65
2022-09-15T12:37:49.275Z,17.68
2022-09-15T12:38:49.263Z,17.72
2022-09-15T12:39:49.305Z,17.70
2022-09-15T12:40:49.287Z,17.51
2022-09-15T12:41:49.252Z,17.45
2022-09-15T12:42:49.460Z,17.44
2022-09-15T12:43:49.315Z,17.48
2022-09-15T12:44:49.234Z,17.48
2022-09-15T12:45:49.278Z,17.48
2022-09-15T12:46:49.327Z,17.36
2022-09-15T12:47:49.228Z,17.34
2022-09-15T12:48:49.211Z,17.27
2022-09-15T12:49:49.194Z,17.27
2022-09-15T12:50:49.187Z,17.29
2022-09-15T12:51:49.210Z,17.23
2022-09-15T12:52:49.168Z,17.19